Terminal Aerodrome Forecast
Issued by NWS

Current Version | Previous Version | Graphics & Text | Print | Product List | Glossary On
Versions: 1 2 3 4 5 6 7 8 9 10 11 12 13 14 15 16 17 18 19
000
FTUS41 KPBZ 272300
TAFMGW
TAF
KMGW 272320Z 2800/2824 21004KT P6SM VCTS FEW060CB BKN080
     FM280300 28010G18KT 4SM TSRA BKN020CB
     FM280430 28010KT 5SM BR BKN025
     FM281600 30009KT P6SM VCSH BKN030=

USA.gov is the U.S. government's official web portal to all federal, state and local government web resources and services.